Terminal Aerodrome Forecast
Issued by NWS Blacksburg, VA

Current Version | Previous Version | Text Only | Print | Product List | Glossary Off
Versions: 1 2 3 4 5 6 7 8 9 10 11 12 13 14 15 16 17 18 19 20 21 22 23 24 25 26 27 28 29 30 31 32 33 34 35 36 37 38 39 40

000
FTUS41 KRNK 271725
TAFBLF
TAF
KBLF 271725Z 2718/2818 31008KT P6SM OVC018
      TEMPO 2718/2721 5SM -SHSN
     FM272300 33005KT P6SM BKN012
     FM280100 04003KT P6SM SCT012 BKN150
     FM280900 12005KT P6SM BKN015
     FM281500 12005KT P6SM SCT015 OVC080=

USA.gov is the U.S. government's official web portal to all federal, state and local government web resources and services.